createdAt,value
2019-04-27T00:01:19.245Z,99772.34
2019-04-27T00:03:47.875Z,99773.45
2019-04-27T00:06:16.509Z,99765.66
2019-04-27T00:08:45.141Z,99768.70
2019-04-27T00:11:13.935Z,99768.84
2019-04-27T00:13:44.077Z,99765.98
2019-04-27T00:16:13.514Z,99788.61
2019-04-27T00:18:45.070Z,99772.11
2019-04-27T00:21:13.458Z,99766.53
2019-04-27T00:23:44.539Z,99770.30
2019-04-27T00:26:12.990Z,99771.89
2019-04-27T00:28:40.459Z,99786.36
2019-04-27T00:31:07.914Z,99766.78
2019-04-27T00:33:34.638Z,99771.80
2019-04-27T00:36:03.312Z,99774.45
2019-04-27T00:38:33.445Z,99767.81
2019-04-27T00:41:02.940Z,99763.29
2019-04-27T00:43:30.092Z,99757.78
2019-04-27T00:45:56.751Z,99754.98
2019-04-27T00:48:23.526Z,99757.46
2019-04-27T00:50:52.810Z,99759.20
2019-04-27T00:53:20.040Z,99743.17
2019-04-27T00:55:48.609Z,99747.45
2019-04-27T00:58:17.087Z,99751.84
2019-04-27T01:00:44.079Z,99749.06
2019-04-27T01:03:13.959Z,99748.15
2019-04-27T01:05:40.769Z,99743.55
2019-04-27T01:08:07.651Z,99737.66
2019-04-27T01:10:34.315Z,99741.78
2019-04-27T01:13:01.132Z,99735.83
2019-04-27T01:15:28.323Z,99738.93
2019-04-27T01:18:07.058Z,99740.24
2019-04-27T01:20:23.649Z,99739.73
2019-04-27T01:22:50.490Z,99740.90
2019-04-27T01:25:18.879Z,99742.17
2019-04-27T01:27:49.364Z,99741.34
2019-04-27T01:30:18.890Z,99739.41
2019-04-27T01:32:45.918Z,99743.77
2019-04-27T01:35:12.587Z,99736.50
2019-04-27T01:37:39.191Z,99746.98
2019-04-27T01:40:07.099Z,99747.58
2019-04-27T01:42:33.755Z,99746.92
2019-04-27T01:45:00.476Z,99747.73
2019-04-27T01:47:28.841Z,99746.69
2019-04-27T01:49:55.941Z,99742.87
2019-04-27T01:52:22.528Z,99746.14
2019-04-27T01:54:49.615Z,99748.95
2019-04-27T01:57:16.395Z,99749.73
2019-04-27T01:59:43.111Z,99757.52
2019-04-27T02:02:11.804Z,99762.90
2019-04-27T02:04:40.727Z,99763.70
2019-04-27T02:07:09.596Z,99751.89
2019-04-27T02:09:36.299Z,99760.95
2019-04-27T02:12:03.653Z,99760.73
2019-04-27T02:14:30.436Z,99756.63
2019-04-27T02:16:57.143Z,99747.26
2019-04-27T02:19:23.966Z,99745.94
2019-04-27T02:21:51.557Z,99744.96
2019-04-27T02:24:18.744Z,99753.26
2019-04-27T02:26:45.889Z,99750.36
2019-04-27T02:29:14.461Z,99745.88
2019-04-27T02:31:43.102Z,99743.58
2019-04-27T02:34:11.752Z,99747.75
2019-04-27T02:36:39.177Z,99745.01
2019-04-27T02:39:09.312Z,99742.74
2019-04-27T02:41:36.188Z,99750.34
2019-04-27T02:44:06.552Z,99738.77
2019-04-27T02:46:33.417Z,99743.12
2019-04-27T02:49:06.078Z,99742.08
2019-04-27T02:51:30.631Z,99741.50
2019-04-27T02:54:00.201Z,99732.33
2019-04-27T02:56:27.513Z,99732.98
2019-04-27T02:58:54.488Z,99728.62
2019-04-27T03:01:23.770Z,99734.43
2019-04-27T03:03:50.632Z,99730.17
2019-04-27T03:06:19.680Z,99735.33
2019-04-27T03:08:49.509Z,99728.95
2019-04-27T03:11:14.557Z,99728.48
2019-04-27T03:13:43.143Z,99731.99
2019-04-27T03:16:13.445Z,99738.00
2019-04-27T03:18:42.215Z,99738.88
2019-04-27T03:21:13.102Z,99736.80
2019-04-27T03:23:41.164Z,99740.69
2019-04-27T03:26:10.791Z,99742.00
2019-04-27T03:28:40.152Z,99739.05
2019-04-27T03:31:06.686Z,99736.50
2019-04-27T03:33:34.101Z,99742.47
2019-04-27T03:36:02.527Z,99746.22
2019-04-27T03:38:30.213Z,99746.42
2019-04-27T03:40:57.387Z,99751.89
2019-04-27T03:43:24.371Z,99753.91
2019-04-27T03:45:52.295Z,99755.70
2019-04-27T03:48:20.366Z,99753.92
2019-04-27T03:50:50.609Z,99749.66
2019-04-27T03:53:20.517Z,99751.21
2019-04-27T03:55:50.616Z,99756.83
2019-04-27T03:58:21.626Z,99757.14
2019-04-27T04:00:51.970Z,99757.08
2019-04-27T04:03:20.255Z,99748.77
2019-04-27T04:05:47.066Z,99755.83
2019-04-27T04:08:14.038Z,99744.02
2019-04-27T04:10:42.666Z,99751.59
2019-04-27T04:13:11.179Z,99753.77
2019-04-27T04:15:40.040Z,99766.51
2019-04-27T04:18:06.932Z,99763.24
2019-04-27T04:20:34.629Z,99757.19
2019-04-27T04:23:03.391Z,99768.32
2019-04-27T04:25:33.117Z,99766.61
2019-04-27T04:28:00.597Z,99762.42
2019-04-27T04:30:30.019Z,99766.37
2019-04-27T04:32:56.217Z,99767.70
2019-04-27T04:35:23.862Z,99768.52
2019-04-27T04:37:52.832Z,99767.59
2019-04-27T04:40:23.238Z,99764.45
2019-04-27T04:42:52.030Z,99773.83
2019-04-27T04:45:20.646Z,99764.63
2019-04-27T04:47:49.761Z,99768.75
2019-04-27T04:50:16.746Z,99774.59
2019-04-27T04:52:43.473Z,99768.73
2019-04-27T04:55:10.476Z,99778.22
2019-04-27T04:57:37.274Z,99772.07
2019-04-27T05:00:05.556Z,99764.77
2019-04-27T05:02:32.274Z,99773.53
2019-04-27T05:04:59.122Z,99769.58
2019-04-27T05:07:27.479Z,99775.02
2019-04-27T05:09:54.896Z,99769.55
2019-04-27T05:12:22.657Z,99770.78
2019-04-27T05:14:51.469Z,99773.19
2019-04-27T05:17:19.639Z,99765.81
2019-04-27T05:19:49.094Z,99774.48
2019-04-27T05:22:16.251Z,99772.91
2019-04-27T05:24:43.655Z,99773.09
2019-04-27T05:27:10.538Z,99781.61
2019-04-27T05:29:38.828Z,99791.97
2019-04-27T05:32:05.657Z,99791.62
2019-04-27T05:34:32.928Z,99806.19
2019-04-27T05:37:01.128Z,99808.56
2019-04-27T05:39:29.780Z,99802.94
2019-04-27T05:41:56.467Z,99809.17
2019-04-27T05:44:24.994Z,99808.94
2019-04-27T05:46:53.700Z,99807.41
2019-04-27T05:49:22.303Z,99822.83
2019-04-27T05:51:50.144Z,99827.64
2019-04-27T05:54:19.232Z,99833.35
2019-04-27T05:56:46.416Z,99823.84
2019-04-27T05:59:14.798Z,99820.77
2019-04-27T06:01:41.730Z,99825.33
2019-04-27T06:04:09.067Z,99827.02
2019-04-27T06:06:36.333Z,99824.95
2019-04-27T06:09:05.968Z,99835.05
2019-04-27T06:11:32.627Z,99836.34
2019-04-27T06:13:59.442Z,99838.42
2019-04-27T06:16:26.154Z,99838.02
2019-04-27T06:18:53.095Z,99843.79
2019-04-27T06:21:19.773Z,99852.16
2019-04-27T06:23:48.715Z,99852.17
2019-04-27T06:26:15.487Z,99856.36
2019-04-27T06:28:42.058Z,99860.75
2019-04-27T06:31:08.890Z,99867.45
2019-04-27T06:33:35.506Z,99861.86
2019-04-27T06:36:02.399Z,99866.67
2019-04-27T06:38:30.192Z,99867.53
2019-04-27T06:40:56.773Z,99872.25
2019-04-27T06:43:23.372Z,99866.20
2019-04-27T06:45:49.964Z,99866.30
2019-04-27T06:48:16.512Z,99871.56
2019-04-27T06:50:43.124Z,99871.87
2019-04-27T06:53:09.663Z,99859.63
2019-04-27T06:55:36.218Z,99857.13
2019-04-27T06:58:03.728Z,99860.52
2019-04-27T07:00:30.415Z,99863.20
2019-04-27T07:02:56.968Z,99869.25
2019-04-27T07:05:24.053Z,99871.70
2019-04-27T07:07:50.848Z,99879.92
2019-04-27T07:10:18.610Z,99877.95
2019-04-27T07:12:45.671Z,99883.16
2019-04-27T07:15:15.395Z,99896.92
2019-04-27T07:17:41.039Z,99896.34
2019-04-27T07:20:09.194Z,99903.92
2019-04-27T07:22:35.895Z,99900.95
2019-04-27T07:25:05.223Z,99899.23
2019-04-27T07:27:32.420Z,99893.64
2019-04-27T07:30:01.554Z,99907.25
2019-04-27T07:32:29.347Z,99906.30
2019-04-27T07:34:55.918Z,99907.89
2019-04-27T07:37:22.578Z,99912.91
2019-04-27T07:39:49.399Z,99915.31
2019-04-27T07:42:16.981Z,99911.08
2019-04-27T07:44:47.065Z,99914.98
2019-04-27T07:47:16.040Z,99914.72
2019-04-27T07:49:45.008Z,99918.66
2019-04-27T07:52:12.862Z,99912.55
2019-04-27T07:54:41.001Z,99921.00
2019-04-27T07:57:09.738Z,99922.98
2019-04-27T07:59:36.639Z,99926.29
2019-04-27T08:02:04.586Z,99938.94
2019-04-27T08:04:31.363Z,99925.23
2019-04-27T08:06:59.562Z,99929.25
2019-04-27T08:09:26.508Z,99941.48
2019-04-27T08:11:53.371Z,99946.06
2019-04-27T08:14:19.941Z,99948.03
2019-04-27T08:16:48.486Z,99947.18
2019-04-27T08:19:15.403Z,99962.81
2019-04-27T08:21:44.562Z,99965.20
2019-04-27T08:24:11.755Z,99964.69
2019-04-27T08:26:40.690Z,99965.19
2019-04-27T08:29:09.313Z,99966.36
2019-04-27T08:31:38.643Z,99979.87
2019-04-27T08:34:08.572Z,99978.22
2019-04-27T08:36:35.374Z,99981.47
2019-04-27T08:39:04.968Z,99975.27
2019-04-27T08:41:32.131Z,99972.56
2019-04-27T08:43:58.829Z,99972.69
2019-04-27T08:46:25.403Z,99973.80
2019-04-27T08:48:52.163Z,99972.73
2019-04-27T08:51:19.657Z,99974.27
2019-04-27T08:53:46.606Z,99973.28
2019-04-27T08:56:14.622Z,99965.51
2019-04-27T08:58:41.253Z,99969.98
2019-04-27T09:01:10.162Z,99971.73
2019-04-27T09:03:36.468Z,99978.02
2019-04-27T09:06:05.200Z,99978.36
2019-04-27T09:08:34.835Z,99975.40
2019-04-27T09:11:03.526Z,99976.23
2019-04-27T09:13:32.187Z,99975.77
2019-04-27T09:16:01.022Z,99977.05
2019-04-27T09:18:32.369Z,99980.78
2019-04-27T09:21:00.183Z,99975.86
2019-04-27T09:23:28.513Z,99974.67
2019-04-27T09:25:59.325Z,99970.08
2019-04-27T09:28:26.025Z,99976.70
2019-04-27T09:30:52.868Z,99982.46
2019-04-27T09:33:22.161Z,99985.49
2019-04-27T09:35:48.226Z,99987.73
2019-04-27T09:38:14.860Z,99991.86
2019-04-27T09:40:41.403Z,99988.40
2019-04-27T09:43:07.977Z,99984.80
2019-04-27T09:45:34.893Z,99978.69
2019-04-27T09:48:01.702Z,99981.91
2019-04-27T09:50:28.609Z,99982.07
2019-04-27T09:52:55.803Z,99974.88
2019-04-27T09:55:22.979Z,99970.11
2019-04-27T09:57:49.651Z,99973.15
2019-04-27T10:00:18.008Z,99972.50
2019-04-27T10:02:46.422Z,99974.34
2019-04-27T10:05:15.373Z,99980.52
2019-04-27T10:07:43.246Z,99985.80
2019-04-27T10:10:10.404Z,99979.80
2019-04-27T10:12:37.288Z,99978.81
2019-04-27T10:15:08.052Z,99976.64
2019-04-27T10:17:34.683Z,99983.05
2019-04-27T10:20:01.585Z,99980.66
2019-04-27T10:22:40.341Z,99986.29
2019-04-27T10:24:56.936Z,99981.77
2019-04-27T10:27:23.564Z,99985.09
2019-04-27T10:29:50.708Z,99983.38
2019-04-27T10:32:17.661Z,99990.39
2019-04-27T10:34:44.280Z,99990.95
2019-04-27T10:37:11.507Z,99991.78
2019-04-27T10:39:38.315Z,100001.08
2019-04-27T10:42:06.733Z,100017.56
2019-04-27T10:44:35.566Z,100013.98
2019-04-27T10:47:02.749Z,100012.70
2019-04-27T10:49:29.633Z,100011.00
2019-04-27T10:51:56.470Z,100015.98
2019-04-27T10:54:23.247Z,100017.16
2019-04-27T10:56:50.381Z,100021.91
2019-04-27T10:59:17.434Z,100018.74
2019-04-27T11:01:45.860Z,100020.70
2019-04-27T11:04:15.886Z,100014.77
2019-04-27T11:06:45.109Z,100022.64
2019-04-27T11:09:12.070Z,100021.13
2019-04-27T11:11:39.549Z,100018.71
2019-04-27T11:14:06.947Z,100023.53
2019-04-27T11:16:35.665Z,100020.95
2019-04-27T11:19:03.179Z,100024.58
2019-04-27T11:21:30.200Z,100031.33
2019-04-27T11:23:57.024Z,100031.20
2019-04-27T11:26:23.928Z,100027.86
2019-04-27T11:28:52.322Z,100037.86
2019-04-27T11:31:20.202Z,100040.92
2019-04-27T11:33:46.820Z,100038.98
2019-04-27T11:36:17.051Z,100047.63
2019-04-27T11:38:44.451Z,100049.29
2019-04-27T11:41:11.080Z,100052.70
2019-04-27T11:43:37.978Z,100050.77
2019-04-27T11:46:06.169Z,100051.70
2019-04-27T11:48:33.430Z,100052.95
2019-04-27T11:51:00.335Z,100048.56
2019-04-27T11:53:26.875Z,100060.11
2019-04-27T11:55:53.899Z,100054.92
2019-04-27T11:58:20.492Z,100044.95
2019-04-27T12:00:47.185Z,100054.03
2019-04-27T12:03:16.572Z,100055.60
2019-04-27T12:05:43.499Z,100057.11
2019-04-27T12:08:10.116Z,100064.77
2019-04-27T12:10:36.728Z,100060.68
2019-04-27T12:13:05.433Z,100061.45
2019-04-27T12:15:32.366Z,100064.80
2019-04-27T12:17:59.122Z,100059.09
2019-04-27T12:20:26.079Z,100056.47
2019-04-27T12:22:53.113Z,100067.23
2019-04-27T12:25:20.116Z,100063.61
2019-04-27T12:27:48.836Z,100055.98
2019-04-27T12:30:18.255Z,100055.98
2019-04-27T12:32:45.692Z,100045.08
2019-04-27T12:35:13.663Z,100047.56
2019-04-27T12:37:40.254Z,100049.59
2019-04-27T12:40:07.341Z,100059.47
2019-04-27T12:42:36.234Z,100057.27
2019-04-27T12:45:05.708Z,100061.14
2019-04-27T12:47:32.666Z,100059.99
2019-04-27T12:49:59.400Z,100061.77
2019-04-27T12:52:26.268Z,100062.14
2019-04-27T12:54:55.009Z,100068.48
2019-04-27T12:57:26.885Z,100073.44
2019-04-27T12:59:56.614Z,100072.34
2019-04-27T13:02:28.040Z,100078.64
2019-04-27T13:04:56.652Z,100076.22
2019-04-27T13:07:23.495Z,100076.59
2019-04-27T13:09:50.134Z,100078.64
2019-04-27T13:12:18.150Z,100069.44
2019-04-27T13:14:45.722Z,100079.09
2019-04-27T13:17:12.686Z,100072.42
2019-04-27T13:19:39.345Z,100073.63
2019-04-27T13:22:09.017Z,100081.11
2019-04-27T13:24:36.790Z,100065.70
2019-04-27T13:27:06.516Z,100075.27
2019-04-27T13:29:35.739Z,100070.77
2019-04-27T13:32:03.240Z,100069.20
2019-04-27T13:34:29.918Z,100073.39
2019-04-27T13:36:58.637Z,100073.78
2019-04-27T13:39:25.797Z,100076.58
2019-04-27T13:41:52.759Z,100078.05
2019-04-27T13:44:19.511Z,100078.02
2019-04-27T13:46:48.213Z,100078.81
2019-04-27T13:49:18.150Z,100074.16
2019-04-27T13:51:46.623Z,100073.17
2019-04-27T13:54:18.878Z,100069.99
2019-04-27T13:56:43.812Z,100066.37
2019-04-27T13:59:12.775Z,100067.97
2019-04-27T14:01:40.588Z,100062.63
2019-04-27T14:04:07.238Z,100063.34
2019-04-27T14:06:34.119Z,100063.30
2019-04-27T14:09:03.887Z,100063.55
2019-04-27T14:11:32.558Z,100059.24
2019-04-27T14:13:59.180Z,100055.51
2019-04-27T14:16:25.774Z,100053.78
2019-04-27T14:18:52.651Z,100051.36
2019-04-27T14:21:19.310Z,100046.16
2019-04-27T14:23:45.925Z,100046.93
2019-04-27T14:26:12.943Z,100053.78
2019-04-27T14:28:39.796Z,100045.37
2019-04-27T14:31:06.551Z,100053.29
2019-04-27T14:33:33.319Z,100057.56
2019-04-27T14:36:00.054Z,100057.96
2019-04-27T14:38:26.736Z,100056.11
2019-04-27T14:40:53.646Z,100062.97
2019-04-27T14:43:20.378Z,100065.02
2019-04-27T14:45:48.616Z,100064.13
2019-04-27T14:48:15.777Z,100053.81
2019-04-27T14:50:42.665Z,100062.73
2019-04-27T14:53:09.236Z,100062.50
2019-04-27T14:55:35.951Z,100066.48
2019-04-27T14:58:02.857Z,100071.70
2019-04-27T15:00:30.680Z,100069.88
2019-04-27T15:02:59.147Z,100059.26
2019-04-27T15:05:26.141Z,100065.41
2019-04-27T15:07:54.583Z,100059.83
2019-04-27T15:10:27.011Z,100068.96
2019-04-27T15:12:55.452Z,100063.75
2019-04-27T15:15:22.031Z,100059.63
2019-04-27T15:17:49.429Z,100058.42
2019-04-27T15:20:18.553Z,100058.34
2019-04-27T15:22:50.790Z,100059.83
2019-04-27T15:25:15.905Z,100057.66
2019-04-27T15:27:45.170Z,100064.95
2019-04-27T15:30:14.529Z,100067.83
2019-04-27T15:32:43.210Z,100062.41
2019-04-27T15:35:11.939Z,100072.09
2019-04-27T15:37:40.642Z,100065.69
2019-04-27T15:40:12.679Z,100066.12
2019-04-27T15:42:49.064Z,100071.92
2019-04-27T15:45:12.060Z,100066.34
2019-04-27T15:47:42.546Z,100063.38
2019-04-27T15:50:08.727Z,100058.32
2019-04-27T15:52:35.434Z,100060.44
2019-04-27T15:55:11.015Z,100062.08
2019-04-27T15:57:33.075Z,100067.13
2019-04-27T15:59:59.847Z,100070.01
2019-04-27T16:02:26.535Z,100077.91
2019-04-27T16:04:53.619Z,100073.50
2019-04-27T16:07:25.259Z,100070.01
2019-04-27T16:09:49.423Z,100071.63
2019-04-27T16:12:18.024Z,100071.59
2019-04-27T16:14:44.828Z,100073.00
2019-04-27T16:17:11.695Z,100074.00
2019-04-27T16:19:42.627Z,100074.03
2019-04-27T16:22:08.029Z,100070.84
2019-04-27T16:24:34.993Z,100079.34
2019-04-27T16:27:01.844Z,100070.36
2019-04-27T16:29:31.575Z,100073.12
2019-04-27T16:31:58.349Z,100070.79
2019-04-27T16:34:25.475Z,100071.17
2019-04-27T16:36:52.568Z,100070.52
2019-04-27T16:39:20.411Z,100073.33
2019-04-27T16:41:50.027Z,100076.20
2019-04-27T16:44:15.941Z,100077.42
2019-04-27T16:46:43.187Z,100076.48
2019-04-27T16:49:14.025Z,100074.50
2019-04-27T16:51:40.278Z,100079.95
2019-04-27T16:54:13.065Z,100076.55
2019-04-27T16:56:37.923Z,100074.09
2019-04-27T16:59:25.895Z,100075.22
2019-04-27T17:01:33.822Z,100087.48
2019-04-27T17:04:00.655Z,100086.33
2019-04-27T17:06:29.532Z,100084.68
2019-04-27T17:08:57.476Z,100081.58
2019-04-27T17:11:26.170Z,100075.74
2019-04-27T17:13:56.223Z,100072.36
2019-04-27T17:16:28.753Z,100065.37
2019-04-27T17:19:04.614Z,100075.45
2019-04-27T17:21:28.843Z,100068.31
2019-04-27T17:23:58.732Z,100064.45
2019-04-27T17:26:24.394Z,100061.97
2019-04-27T17:28:53.192Z,100060.91
2019-04-27T17:31:21.961Z,100065.22
2019-04-27T17:33:51.768Z,100070.16
2019-04-27T17:36:19.863Z,100069.30
2019-04-27T17:38:50.857Z,100074.56
2019-04-27T17:41:15.709Z,100083.57
2019-04-27T17:43:42.812Z,100085.27
2019-04-27T17:46:11.494Z,100082.80
2019-04-27T17:48:38.622Z,100082.83
2019-04-27T17:51:05.681Z,100083.73
2019-04-27T17:53:33.200Z,100080.10
2019-04-27T17:56:05.680Z,100080.98
2019-04-27T17:58:28.747Z,100090.79
2019-04-27T18:00:58.011Z,100095.01
2019-04-27T18:03:25.828Z,100095.22
2019-04-27T18:05:52.622Z,100101.67
2019-04-27T18:08:24.605Z,100101.77
2019-04-27T18:10:48.034Z,100107.73
2019-04-27T18:13:20.867Z,100105.33
2019-04-27T18:15:45.739Z,100108.69
2019-04-27T18:18:13.887Z,100111.33
2019-04-27T18:20:40.646Z,100115.75
2019-04-27T18:23:15.184Z,100124.05
2019-04-27T18:25:43.472Z,100123.95
2019-04-27T18:28:15.176Z,100134.91
2019-04-27T18:30:42.185Z,100139.30
2019-04-27T18:33:08.893Z,100146.75
2019-04-27T18:35:35.549Z,100147.16
2019-04-27T18:38:02.385Z,100155.93
2019-04-27T18:40:32.027Z,100157.73
2019-04-27T18:42:57.937Z,100169.19
2019-04-27T18:45:24.767Z,100163.83
2019-04-27T18:47:56.415Z,100158.68
2019-04-27T18:50:25.161Z,100168.12
2019-04-27T18:52:54.084Z,100167.75
2019-04-27T18:55:21.089Z,100170.69
2019-04-27T18:57:50.981Z,100169.36
2019-04-27T19:00:18.938Z,100178.56
2019-04-27T19:02:45.790Z,100172.87
2019-04-27T19:05:12.858Z,100182.02
2019-04-27T19:07:40.171Z,100174.55
2019-04-27T19:10:08.953Z,100178.64
2019-04-27T19:12:36.068Z,100172.84
2019-04-27T19:15:04.976Z,100169.48
2019-04-27T19:17:33.587Z,100176.98
2019-04-27T19:20:00.482Z,100170.86
2019-04-27T19:22:27.948Z,100162.17
2019-04-27T19:24:55.714Z,100155.19
2019-04-27T19:27:24.262Z,100157.86
2019-04-27T19:29:52.774Z,100159.83
2019-04-27T19:32:19.742Z,100155.67
2019-04-27T19:34:47.996Z,100158.85
2019-04-27T19:37:15.064Z,100157.66
2019-04-27T19:39:41.676Z,100156.48
2019-04-27T19:42:08.415Z,100155.41
2019-04-27T19:44:36.214Z,100152.56
2019-04-27T19:47:05.651Z,100158.80
2019-04-27T19:49:31.946Z,100161.36
2019-04-27T19:51:58.883Z,100162.80
2019-04-27T19:54:28.260Z,100155.28
2019-04-27T19:56:54.860Z,100147.56
2019-04-27T19:59:23.413Z,100147.48
2019-04-27T20:01:52.658Z,100146.02
2019-04-27T20:04:19.204Z,100147.89
2019-04-27T20:06:45.928Z,100144.20
2019-04-27T20:09:14.795Z,100139.47
2019-04-27T20:11:41.460Z,100142.39
2019-04-27T20:14:08.106Z,100141.27
2019-04-27T20:16:34.819Z,100140.52
2019-04-27T20:19:02.520Z,100138.25
2019-04-27T20:21:30.809Z,100134.71
2019-04-27T20:23:57.738Z,100142.94
2019-04-27T20:26:24.411Z,100138.77
2019-04-27T20:28:51.474Z,100138.23
2019-04-27T20:31:18.116Z,100138.67
2019-04-27T20:33:47.722Z,100139.33
2019-04-27T20:36:14.348Z,100140.05
2019-04-27T20:38:41.869Z,100136.30
2019-04-27T20:41:08.685Z,100137.93
2019-04-27T20:43:35.345Z,100141.66
2019-04-27T20:46:02.158Z,100126.80
2019-04-27T20:48:28.743Z,100132.08
2019-04-27T20:50:55.357Z,100132.13
2019-04-27T20:53:23.971Z,100136.41
2019-04-27T20:55:50.652Z,100135.12
2019-04-27T20:58:17.262Z,100141.00
2019-04-27T21:00:44.187Z,100130.72
2019-04-27T21:03:12.996Z,100130.66
2019-04-27T21:05:41.686Z,100134.41
2019-04-27T21:08:11.756Z,100132.27
2019-04-27T21:10:38.684Z,100133.59
2019-04-27T21:13:05.517Z,100138.29
2019-04-27T21:15:32.172Z,100130.22
2019-04-27T21:17:58.766Z,100134.01
2019-04-27T21:20:25.449Z,100129.31
2019-04-27T21:22:53.487Z,100130.55
2019-04-27T21:25:23.073Z,100125.42
2019-04-27T21:27:51.364Z,100119.51
2019-04-27T21:30:18.196Z,100111.36
2019-04-27T21:32:44.862Z,100103.77
2019-04-27T21:35:11.722Z,100106.14
2019-04-27T21:37:40.683Z,100112.30
2019-04-27T21:40:11.288Z,100117.80
2019-04-27T21:42:37.862Z,100118.36
2019-04-27T21:45:05.063Z,100117.08
2019-04-27T21:47:31.710Z,100117.41
2019-04-27T21:49:58.275Z,100113.91
2019-04-27T21:52:26.787Z,100113.17
2019-04-27T21:54:54.667Z,100116.81
2019-04-27T21:57:21.246Z,100107.52
2019-04-27T21:59:47.864Z,100120.81
2019-04-27T22:02:15.248Z,100114.41
2019-04-27T22:04:42.013Z,100114.39
2019-04-27T22:07:08.820Z,100109.47
2019-04-27T22:09:35.670Z,100109.38
2019-04-27T22:12:02.779Z,100115.80
2019-04-27T22:14:29.473Z,100113.12
2019-04-27T22:16:56.305Z,100110.47
2019-04-27T22:19:23.435Z,100109.23
2019-04-27T22:21:51.958Z,100110.91
2019-04-27T22:24:21.272Z,100109.30
2019-04-27T22:26:48.322Z,100109.61
2019-04-27T22:29:14.941Z,100111.02
2019-04-27T22:31:41.755Z,100111.80
2019-04-27T22:34:08.647Z,100108.51
2019-04-27T22:36:35.250Z,100106.48
2019-04-27T22:39:07.467Z,100103.09
2019-04-27T22:41:37.864Z,100100.37
2019-04-27T22:44:06.447Z,100092.23
2019-04-27T22:46:35.119Z,100099.05
2019-04-27T22:49:01.963Z,100093.81
2019-04-27T22:51:28.611Z,100104.53
2019-04-27T22:53:55.300Z,100100.17
2019-04-27T22:56:22.488Z,100105.01
2019-04-27T22:58:58.618Z,100104.34
2019-04-27T23:01:23.262Z,100103.95
2019-04-27T23:03:51.747Z,100104.33
2019-04-27T23:06:18.557Z,100107.92
2019-04-27T23:08:45.172Z,100106.12
2019-04-27T23:11:11.912Z,100110.76
2019-04-27T23:13:38.904Z,100104.34
2019-04-27T23:16:07.651Z,100098.39
2019-04-27T23:18:34.311Z,100098.02
2019-04-27T23:21:01.533Z,100093.00
2019-04-27T23:23:30.896Z,100106.23
2019-04-27T23:25:57.521Z,100091.48
2019-04-27T23:28:24.227Z,100099.80
2019-04-27T23:30:52.811Z,100099.89
2019-04-27T23:33:21.083Z,100097.45
2019-04-27T23:35:47.924Z,100097.16
2019-04-27T23:38:17.775Z,100091.13
2019-04-27T23:40:43.194Z,100100.79
2019-04-27T23:43:11.473Z,100096.05
2019-04-27T23:45:38.664Z,100100.02
2019-04-27T23:48:05.397Z,100099.37
2019-04-27T23:50:34.040Z,100091.98
2019-04-27T23:53:02.646Z,100090.86
2019-04-27T23:55:31.144Z,100096.42
2019-04-27T23:57:57.766Z,100097.26
